Capitol Logistics 1149


EBLG
Liège Airport
Liege, BE
EHAM
Schiphol International Airport
Amsterdam, NL

Activity Log

Date Flight Route Aircraft Duration
11/13/2019 CPX749 Not Available B738 0h 50m

Route Details

Aircraft Information
Primary: Boeing 737-800BCF
Backup: Not Available
Route Data
Distance: 104nm
Sched. Duration: 0h 35m
Avg. Duration: 0h 50m (+15m)
Times Flown: 1
Recm'd Route: Not Available
Planned Altitude: 21,000ft
Origin Wx: EBLG 051420Z 25015KT 9999 FEW021 BKN047 14/10 Q0994 TEMPO 20015G25KT 4000 SHRA
Dest. Wx: EHAM 051425Z 31017KT 280V340 9999 VCSH FEW020CB FEW030 BKN040 11/07 Q0992 TEMPO 6000 SHRA
Notes:

Financial History
Total Freight: 29,041lbs
Average Load: 29,041lbs/flt
Fuel Used: 3,600lbs
Avg. Fuel Used: 3,600lbs/flt
Fuel Expense: $3,996
Avg. Fuel Expense: $3,996
Avg. Fuel Cost: $1.11/lbs
Total Gross Income: $60,696
Pilot Pay: $239
Total Expenses: $6,607
Total Revenue: $49,877
Average Revenue: $60,695.69